METAR AND TAF INFORMATION
METAR FOR SULS
ADDS - METARS form results

(0135 UTC 21 March 2019)
Data provider http://aviationweather.gov/metar/data/
 
Forecast for: SULS (CAPITAN CORBETA , UY)
Text: TAF SULS 202300Z 2100/2124 20015KT 9999 SCT026 TX19/2018Z TN12/2109Z
Forecast period: 0000 UTC 21 March 2019 to 0000 UTC 22 March 2019
Forecast type: FROM: standard forecast or significant change
Winds: from the SSW (200 degrees) at 17 MPH (15 knots; 7.7 m/s)
Visibility: 6 or more miles 10+ km)
Ceiling: at least 12,000 feet AGL
Clouds: scattered clouds at 2600 feet AGL
Weather: no significant weather forecast for this period
Text: TEMPO 2100/2112 5000 RA BKN015 BKN070
Forecast period: 0000 to 1200 UTC 21 March 2019
Forecast type: TEMPORARY: The following changes expected for less than half the time period
Visibility: 3 miles (5 km)
Ceiling: 1500 feet AGL
Clouds: broken clouds at 1500 feet AGL
broken clouds at 7000 feet AGL
Weather: RA  (moderate rain)

 AIRPORT MAP

 RUNWAY INFORMATION

 AIRPORT FREQUENCIES
Type A/G Name A/G Frequency 122.1 MHZ
Type ATIS Name ATIS Frequency 117.6 MHZ
Type RDO Name RDO Frequency 45.662 MHZ
Type TWR Name TWR Frequency 118.3 MHZ

 AIRPORT NEAR NAVIGATION AIDS
Type VOR-DME Name Curbelo Frequency 117600 KHZ
Type NDB Name Curbelo Frequency 239 KHZ



Powered by Virtual Airlines Manager [v2.6.2]